Motion Scan — PCNB — position and weather

sailwx.info

Track history (hours):
 
Tides and Currents Weather Stations Pressure Air Temp Water Temp Dewpoint Dewpoint Depression Visibility Wind Speed Wind Dir Waves Ship Positions

Motion Scan

Last reported at 2016-Dec-09 20:32 UTC. Time now 2016-Dec-09 21:20 UTC.
Position N 45°28' E 012°15'.

Length 116 m; draft 5.5 m.

Type: Cargo ship. MMSI: 245523000.

Date/timePositionNaut miles runAvg speedWind from/ knotsBaromVisibWave heightAir tempDewpointWater temp
2016-Dec-09 20:32N 45°28' E 012°15'0 0.0
2016-Dec-09 19:32N 45°28' E 012°15'0 0.0
2016-Dec-09 18:32N 45°28' E 012°15'0 0.2
2016-Dec-09 17:33N 45°28' E 012°15'3 3.4
2016-Dec-09 16:33N 45°24' E 012°16'8 8.2
2016-Dec-09 15:34N 45°20' E 012°25'2 2.0
2016-Dec-09 14:30N 45°21' E 012°27'0 0.1
2016-Dec-09 13:33N 45°21' E 012°27'0 0.0
2016-Dec-09 12:33N 45°21' E 012°28'0 0.0
2016-Dec-09 11:31N 45°21' E 012°27'0 0.0
2016-Dec-09 10:34N 45°21' E 012°27'0 0.0
2016-Dec-09 09:33N 45°21' E 012°27'0 0.0
2016-Dec-09 08:31N 45°21' E 012°28'0 0.0
2016-Dec-09 07:33N 45°21' E 012°27'0 0.0
2016-Dec-09 05:33N 45°21' E 012°27'3 3.5
2016-Dec-09 04:33N 45°18' E 012°30'9 9.4
2016-Dec-09 03:33N 45°12' E 012°40'9 9.3
2016-Dec-09 02:34N 45°06' E 012°50'10 9.9
2016-Dec-09 01:33N 44°56' E 012°55'1010.2
2016-Dec-09 00:33N 44°47' E 013°01'1010.4
2016-Dec-08 23:33N 44°37' E 013°05'1110.6
2016-Dec-08 22:33N 44°27' E 013°10'1310.4
2016-Dec-08 21:20N 44°16' E 013°18'1110.6
2016-Dec-08 20:20N 44°09' E 013°29'911.0
2016-Dec-08 19:33N 44°04' E 013°39'1211.4
2016-Dec-08 18:30N 43°57' E 013°52'1111.5
2016-Dec-08 17:33N 43°50' E 014°04'  
Track history (hours):
 
Tides and Currents Weather Stations Pressure Air Temp Water Temp Dewpoint Dewpoint Depression Visibility Wind Speed Wind Dir Waves Ship Positions

Motion Scan

Last reported at 2016-Dec-09 20:32 UTC. Time now 2016-Dec-09 21:20 UTC.
Position N 45°28' E 012°15'.

Length 116 m; draft 5.5 m.

Type: Cargo ship. MMSI: 245523000.

Date/timePositionNaut miles runAvg speedWind from/ knotsBaromVisibWave heightAir tempDewpointWater temp
2016-Dec-09 20:32N 45°28' E 012°15'0 0.0
2016-Dec-09 19:32N 45°28' E 012°15'0 0.0
2016-Dec-09 18:32N 45°28' E 012°15'0 0.2
2016-Dec-09 17:33N 45°28' E 012°15'3 3.4
2016-Dec-09 16:33N 45°24' E 012°16'8 8.2
2016-Dec-09 15:34N 45°20' E 012°25'2 2.0
2016-Dec-09 14:30N 45°21' E 012°27'0 0.1
2016-Dec-09 13:33N 45°21' E 012°27'0 0.0
2016-Dec-09 12:33N 45°21' E 012°28'0 0.0
2016-Dec-09 11:31N 45°21' E 012°27'0 0.0
2016-Dec-09 10:34N 45°21' E 012°27'0 0.0
2016-Dec-09 09:33N 45°21' E 012°27'0 0.0
2016-Dec-09 08:31N 45°21' E 012°28'0 0.0
2016-Dec-09 07:33N 45°21' E 012°27'0 0.0
2016-Dec-09 05:33N 45°21' E 012°27'3 3.5
2016-Dec-09 04:33N 45°18' E 012°30'9 9.4
2016-Dec-09 03:33N 45°12' E 012°40'9 9.3
2016-Dec-09 02:34N 45°06' E 012°50'10 9.9
2016-Dec-09 01:33N 44°56' E 012°55'1010.2
2016-Dec-09 00:33N 44°47' E 013°01'1010.4
2016-Dec-08 23:33N 44°37' E 013°05'1110.6
2016-Dec-08 22:33N 44°27' E 013°10'1310.4
2016-Dec-08 21:20N 44°16' E 013°18'1110.6
2016-Dec-08 20:20N 44°09' E 013°29'911.0
2016-Dec-08 19:33N 44°04' E 013°39'1211.4
2016-Dec-08 18:30N 43°57' E 013°52'1111.5
2016-Dec-08 17:33N 43°50' E 014°04'  

Dump ship's entire track history